createdAt,value
2023-04-18T00:00:15.710Z,6.7
2023-04-18T00:02:22.996Z,6.7
2023-04-18T00:04:26.835Z,6.7
2023-04-18T00:06:30.446Z,6.6
2023-04-18T00:08:34.309Z,6.5
2023-04-18T00:37:34.366Z,6.1
2023-04-18T00:47:56.834Z,5.9
2023-04-18T00:50:00.547Z,5.9
2023-04-18T00:54:29.138Z,5.9
2023-04-18T00:56:32.942Z,5.8
2023-04-18T00:58:40.000Z,5.8
2023-04-18T01:00:44.505Z,5.8
2023-04-18T01:02:47.737Z,5.8
2023-04-18T01:04:51.465Z,5.7
2023-04-18T01:06:55.294Z,5.7
2023-04-18T01:08:59.075Z,5.7
2023-04-18T01:11:02.895Z,5.7
2023-04-18T01:15:13.782Z,5.7
2023-04-18T01:19:21.422Z,5.7
2023-04-18T01:21:25.212Z,5.7
2023-04-18T01:23:29.018Z,5.6
2023-04-18T01:25:32.849Z,5.6
2023-04-18T01:29:43.713Z,5.6
2023-04-18T01:31:47.575Z,5.6
2023-04-18T01:33:51.338Z,5.6
2023-04-18T01:37:58.931Z,5.6
2023-04-18T01:40:02.755Z,5.6
2023-04-18T01:42:09.856Z,5.6
2023-04-18T01:44:13.958Z,5.6
2023-04-18T01:46:17.475Z,5.6
2023-04-18T01:47:21.021Z,5.6
2023-04-18T01:49:24.778Z,5.5
2023-04-18T01:51:28.588Z,5.5
2023-04-18T01:55:39.490Z,5.4
2023-04-18T01:57:43.260Z,5.4
2023-04-18T01:59:47.091Z,5.4
2023-04-18T02:16:21.932Z,5.3
2023-04-18T02:18:24.676Z,5.2
2023-04-18T02:20:28.445Z,5.2
2023-04-18T02:24:39.293Z,5.2
2023-04-18T02:26:43.121Z,5.2
2023-04-18T02:28:46.938Z,5.2
2023-04-18T02:30:50.730Z,5.2
2023-04-18T02:39:09.193Z,5
2023-04-18T02:41:12.975Z,5
2023-04-18T02:43:16.799Z,5
2023-04-18T02:46:24.212Z,5
2023-04-18T02:48:27.933Z,4.9
2023-04-18T02:52:38.800Z,4.9
2023-04-18T02:54:42.578Z,4.9
2023-04-18T02:56:46.420Z,4.9
2023-04-18T03:02:57.978Z,5
2023-04-18T03:05:01.607Z,5.1
2023-04-18T03:07:10.294Z,5.1
2023-04-18T03:09:12.453Z,5.1
2023-04-18T03:11:16.246Z,5.1
2023-04-18T03:13:20.042Z,5.1
2023-04-18T03:15:23.828Z,5
2023-04-18T03:17:27.742Z,5
2023-04-18T03:19:31.443Z,5
2023-04-18T03:21:38.496Z,5
2023-04-18T03:23:42.306Z,5
2023-04-18T03:25:46.091Z,5
2023-04-18T03:29:53.704Z,5.1
2023-04-18T03:31:57.502Z,5.1
2023-04-18T03:34:01.327Z,5.1
2023-04-18T03:41:19.550Z,5.3
2023-04-18T03:43:23.346Z,5.3
2023-04-18T03:45:27.158Z,5.4
2023-04-18T03:53:45.620Z,5.4
2023-04-18T04:04:08.014Z,5.5
2023-04-18T04:06:12.480Z,5.5
2023-04-18T04:08:15.558Z,5.5
2023-04-18T04:10:19.369Z,5.5
2023-04-18T04:12:23.173Z,5.5
2023-04-18T04:14:26.985Z,5.5
2023-04-18T04:16:30.908Z,5.5
2023-04-18T04:18:37.889Z,5.5
2023-04-18T04:20:41.680Z,5.5
2023-04-18T04:22:45.463Z,5.5
2023-04-18T04:24:49.275Z,5.6
2023-04-18T04:28:56.900Z,5.6
2023-04-18T04:39:45.884Z,5.6
2023-04-18T04:41:50.374Z,5.6
2023-04-18T04:56:19.650Z,5.6
2023-04-18T04:58:23.462Z,5.7
2023-04-18T05:04:39.923Z,5.7
2023-04-18T05:06:43.617Z,5.7
2023-04-18T05:08:47.389Z,5.8
2023-04-18T05:19:09.720Z,6
2023-04-18T05:23:17.325Z,6
2023-04-18T05:27:24.964Z,6.1
2023-04-18T05:29:32.062Z,6.1
2023-04-18T05:31:36.102Z,6.1
2023-04-18T05:33:39.703Z,6.1
2023-04-18T05:34:43.328Z,6.1
2023-04-18T05:36:47.073Z,6.2
2023-04-18T05:38:50.860Z,6.3
2023-04-18T05:40:54.683Z,6.3
2023-04-18T05:45:05.618Z,6.4
2023-04-18T05:49:13.260Z,6.5
2023-04-18T05:51:17.085Z,6.5
2023-04-18T05:53:20.906Z,6.6
2023-04-18T06:01:39.430Z,6.7
2023-04-18T06:03:43.648Z,6.8
2023-04-18T06:05:48.230Z,6.9
2023-04-18T06:07:51.118Z,7
2023-04-18T06:09:54.933Z,7.1
2023-04-18T06:12:02.079Z,7.2
2023-04-18T06:14:05.873Z,7.3
2023-04-18T06:18:13.503Z,8
2023-04-18T06:20:17.347Z,8.3
2023-04-18T06:22:21.180Z,9.1
2023-04-18T06:31:43.404Z,9.1
2023-04-18T06:33:47.191Z,8.5
2023-04-18T06:35:51.029Z,8
2023-04-18T06:40:02.018Z,7.6
2023-04-18T07:02:47.586Z,10.5
2023-04-18T07:04:51.345Z,11.1
2023-04-18T07:06:55.210Z,10.2
2023-04-18T07:09:02.337Z,11.4
2023-04-18T07:11:06.161Z,12.5
2023-04-18T07:13:09.985Z,10.9
2023-04-18T07:15:13.855Z,11.8
2023-04-18T07:17:17.729Z,12.3
2023-04-18T07:19:21.558Z,12.8
2023-04-18T07:21:25.424Z,13.2
2023-04-18T07:23:32.544Z,13
2023-04-18T07:28:43.826Z,13.1
2023-04-18T07:39:06.356Z,12.1
2023-04-18T07:41:10.286Z,11.4
2023-04-18T07:45:17.960Z,11.7
2023-04-18T07:47:22.624Z,10.7
2023-04-18T07:49:25.677Z,9.9
2023-04-18T07:51:32.799Z,10.8
2023-04-18T07:53:36.713Z,10.2
2023-04-18T07:55:40.570Z,9.6
2023-04-18T07:57:45.794Z,9.8
2023-04-18T07:59:48.222Z,10
2023-04-18T08:01:52.087Z,9.8
2023-04-18T08:03:56.065Z,9.6
2023-04-18T08:14:18.505Z,8.9
2023-04-18T08:16:22.352Z,9
2023-04-18T08:18:26.210Z,9.2
2023-04-18T08:20:33.321Z,9.3
2023-04-18T08:22:46.771Z,9.1
2023-04-18T08:24:42.947Z,9.1
2023-04-18T08:26:59.418Z,9.3
2023-04-18T08:29:03.308Z,9.2
2023-04-18T08:31:07.133Z,9.3
2023-04-18T08:35:18.096Z,9.4
2023-04-18T08:37:21.930Z,9.4
2023-04-18T08:39:25.812Z,9.4
2023-04-18T08:41:29.699Z,9.3
2023-04-18T08:43:33.501Z,9.4
2023-04-18T09:04:18.625Z,10
2023-04-18T09:08:26.285Z,9.6
2023-04-18T09:10:30.144Z,9.8
2023-04-18T09:12:34.009Z,9.8
2023-04-18T09:21:56.236Z,10
2023-04-18T09:24:00.133Z,10.1
2023-04-18T09:26:03.928Z,10.1
2023-04-18T09:30:14.925Z,10.3
2023-04-18T09:32:18.817Z,10.1
2023-04-18T09:34:22.699Z,10.4
2023-04-18T09:36:26.507Z,10.5
2023-04-18T09:38:30.344Z,10.4
2023-04-18T09:42:38.084Z,10.3
2023-04-18T09:44:45.597Z,10.6
2023-04-18T09:48:53.345Z,10.9
2023-04-18T09:50:57.199Z,11
2023-04-18T09:53:01.050Z,11.5
2023-04-18T09:55:04.981Z,11.9
2023-04-18T09:57:08.798Z,11.7
2023-04-18T10:01:19.798Z,10.9
2023-04-18T10:05:27.563Z,11.1
2023-04-18T10:07:31.358Z,10.7
2023-04-18T10:09:35.249Z,10.7
2023-04-18T10:11:39.141Z,10.8
2023-04-18T10:13:46.258Z,11.1
2023-04-18T10:15:50.131Z,11.1
2023-04-18T10:18:03.688Z,11.2
2023-04-18T10:18:57.571Z,11.1
2023-04-18T10:21:01.429Z,11.3
2023-04-18T10:23:05.299Z,11.4
2023-04-18T10:25:09.179Z,11.3
2023-04-18T10:27:16.322Z,11.4
2023-04-18T10:29:20.192Z,11.4
2023-04-18T10:31:24.153Z,11.6
2023-04-18T10:35:31.800Z,12
2023-04-18T10:39:39.537Z,11.7
2023-04-18T10:52:06.037Z,11.7
2023-04-18T11:04:34.203Z,12.2
2023-04-18T11:16:00.266Z,13.1
2023-04-18T11:18:04.199Z,13.6
2023-04-18T11:20:07.971Z,13.5
2023-04-18T11:22:11.826Z,13.4
2023-04-18T11:24:18.956Z,13.3
2023-04-18T11:26:22.836Z,13.8
2023-04-18T11:28:26.667Z,13.5
2023-04-18T11:30:30.531Z,13.7
2023-04-18T11:32:34.613Z,13
2023-04-18T11:34:38.270Z,12.7
2023-04-18T11:36:42.125Z,12.9
2023-04-18T11:38:49.235Z,12.5
2023-04-18T11:40:53.147Z,12.5
2023-04-18T11:45:00.837Z,12.5
2023-04-18T11:49:08.535Z,12.5
2023-04-18T11:51:12.416Z,12.5
2023-04-18T11:53:19.549Z,12.4
2023-04-18T11:55:23.376Z,12.4
2023-04-18T11:57:27.265Z,12.5
2023-04-18T12:01:35.003Z,12.3
2023-04-18T12:03:39.009Z,12.4
2023-04-18T12:05:42.860Z,12.5
2023-04-18T12:07:49.850Z,12.1
2023-04-18T12:14:22.704Z,12.1
2023-04-18T12:16:26.630Z,12.1
2023-04-18T12:18:30.369Z,12.3
2023-04-18T12:26:49.122Z,12.5
2023-04-18T12:28:52.986Z,12.7
2023-04-18T12:30:57.226Z,12.5
2023-04-18T12:33:00.738Z,12.6
2023-04-18T12:35:07.831Z,12.6
2023-04-18T12:37:11.724Z,12.6
2023-04-18T12:39:15.575Z,12.6
2023-04-18T12:41:19.445Z,12.4
2023-04-18T12:43:23.310Z,12.6
2023-04-18T12:45:27.165Z,12.7
2023-04-18T12:47:31.030Z,12.6
2023-04-18T12:49:38.152Z,12.5
2023-04-18T12:51:42.028Z,12.6
2023-04-18T12:53:45.897Z,13.2
2023-04-18T12:55:49.770Z,13.9
2023-04-18T12:57:53.627Z,13.8
2023-04-18T13:06:13.034Z,14.3
2023-04-18T13:08:18.121Z,14.8
2023-04-18T13:09:20.467Z,14.2
2023-04-18T13:11:24.321Z,13.7
2023-04-18T13:21:49.115Z,14.8
2023-04-18T13:34:13.288Z,14.1
2023-04-18T13:40:24.791Z,14.6
2023-04-18T13:46:39.652Z,14.2
2023-04-18T13:52:51.269Z,14.5
2023-04-18T13:54:55.119Z,14.1
2023-04-18T13:59:02.786Z,13.9
2023-04-18T14:05:17.633Z,15.1
2023-04-18T14:06:21.195Z,15.2
2023-04-18T14:10:28.942Z,14.9
2023-04-18T14:12:32.789Z,15.4
2023-04-18T14:14:39.906Z,15.7
2023-04-18T14:16:43.730Z,15.6
2023-04-18T14:18:47.587Z,15.3
2023-04-18T14:20:51.472Z,15.3
2023-04-18T14:22:55.277Z,15.3
2023-04-18T14:24:59.175Z,15.5
2023-04-18T14:27:03.011Z,15.3
2023-04-18T14:29:10.121Z,14.6
2023-04-18T14:31:14.007Z,14.6
2023-04-18T14:33:17.816Z,14.5
2023-04-18T14:35:21.644Z,14.3
2023-04-18T14:37:25.473Z,14
2023-04-18T14:39:29.342Z,14.2
2023-04-18T14:41:33.216Z,14.3
2023-04-18T14:43:40.352Z,14.1
2023-04-18T14:45:44.182Z,14
2023-04-18T14:47:48.108Z,14.2
2023-04-18T14:49:51.865Z,14.6
2023-04-18T14:51:55.727Z,15
2023-04-18T14:53:59.586Z,15.2
2023-04-18T14:56:03.465Z,15
2023-04-18T15:00:18.536Z,15.6
2023-04-18T15:02:18.347Z,15.7
2023-04-18T15:03:22.007Z,15.5
2023-04-18T15:13:44.312Z,16
2023-04-18T15:15:48.146Z,16.5
2023-04-18T15:17:52.052Z,16.5
2023-04-18T15:19:55.812Z,16.2
2023-04-18T15:21:59.604Z,16.1
2023-04-18T15:24:03.453Z,16.2
2023-04-18T15:26:10.594Z,16
2023-04-18T15:28:14.382Z,15.6
2023-04-18T15:30:18.242Z,15.8
2023-04-18T15:32:22.174Z,16.7
2023-04-18T15:34:25.871Z,16.7
2023-04-18T15:36:29.680Z,17.3
2023-04-18T15:38:33.494Z,16.9
2023-04-18T15:42:44.414Z,15.3
2023-04-18T15:48:55.900Z,16.1
2023-04-18T15:57:14.484Z,15.3
2023-04-18T15:59:18.317Z,15.1
2023-04-18T16:01:43.738Z,14.9
2023-04-18T16:05:49.982Z,14.7
2023-04-18T16:07:57.128Z,14.9
2023-04-18T16:12:04.824Z,14.9
2023-04-18T16:14:08.671Z,14.9
2023-04-18T16:16:12.525Z,14.6
2023-04-18T16:18:16.358Z,14.4
2023-04-18T16:22:27.324Z,14.5
2023-04-18T16:24:31.218Z,15.1
2023-04-18T16:26:35.028Z,15.6
2023-04-18T16:28:38.896Z,15.9
2023-04-18T16:30:42.771Z,15.9
2023-04-18T16:32:46.665Z,16
2023-04-18T16:36:57.673Z,15.8
2023-04-18T16:39:01.441Z,15.6
2023-04-18T16:41:05.232Z,15.4
2023-04-18T16:43:09.095Z,15.6
2023-04-18T16:45:12.913Z,15.3
2023-04-18T16:47:16.815Z,14.8
2023-04-18T16:49:20.639Z,14.4
2023-04-18T16:55:35.469Z,14.8
2023-04-18T16:56:39.020Z,15.2
2023-04-18T17:00:48.328Z,14.9
2023-04-18T17:02:52.215Z,14.7
2023-04-18T17:07:03.172Z,14.1
2023-04-18T17:09:07.052Z,14
2023-04-18T17:13:14.743Z,15
2023-04-18T17:17:22.432Z,16.5
2023-04-18T17:21:33.433Z,16
2023-04-18T17:23:37.283Z,15.2
2023-04-18T17:25:41.129Z,14.7
2023-04-18T17:27:45.037Z,14.2
2023-04-18T17:29:48.830Z,14
2023-04-18T17:31:52.719Z,13.9
2023-04-18T17:33:59.813Z,13.7
2023-04-18T17:40:11.399Z,13.5
2023-04-18T17:52:37.802Z,13.3
2023-04-18T17:53:41.382Z,13.3
2023-04-18T17:57:49.126Z,13.2
2023-04-18T17:59:53.003Z,13.2
2023-04-18T18:02:00.207Z,13.2
2023-04-18T18:04:04.058Z,13.2
2023-04-18T18:06:07.861Z,13.2
2023-04-18T18:08:11.759Z,13.1
2023-04-18T18:14:23.366Z,13
2023-04-18T18:18:34.386Z,12.9
2023-04-18T18:22:42.100Z,12.7
2023-04-18T18:24:45.991Z,12.6
2023-04-18T18:26:51.671Z,12.6
2023-04-18T18:35:08.613Z,12.3
2023-04-18T18:37:12.509Z,12.3
2023-04-18T18:39:16.653Z,12.2
2023-04-18T18:41:20.250Z,12.1
2023-04-18T18:49:38.976Z,11.7
2023-04-18T18:50:42.553Z,11.6
2023-04-18T18:52:46.445Z,11.6
2023-04-18T18:56:54.162Z,11.4
2023-04-18T18:59:01.300Z,11.3
2023-04-18T19:01:05.184Z,11.2
2023-04-18T19:03:09.167Z,11.1
2023-04-18T19:05:13.048Z,11.1
2023-04-18T19:07:16.745Z,11.1
2023-04-18T19:09:20.633Z,11
2023-04-18T19:11:24.465Z,11
2023-04-18T19:13:31.617Z,10.9
2023-04-18T19:21:47.155Z,10.7
2023-04-18T19:36:17.428Z,10.5
2023-04-18T19:38:21.307Z,10.5
2023-04-18T19:40:25.159Z,10.4
2023-04-18T19:42:32.275Z,10.5
2023-04-18T19:44:36.158Z,10.4
2023-04-18T19:49:10.481Z,10.4
2023-04-18T19:55:25.345Z,10.3
2023-04-18T19:59:33.084Z,10.3
2023-04-18T20:01:37.029Z,10.3
2023-04-18T20:05:44.879Z,10.2
2023-04-18T20:07:48.570Z,10.2
2023-04-18T20:14:03.425Z,10.1
2023-04-18T20:16:07.335Z,10
2023-04-18T20:18:11.130Z,9.9
2023-04-18T20:20:15.033Z,9.9
2023-04-18T20:44:07.693Z,9.7
2023-04-18T20:46:11.569Z,9.7
2023-04-18T20:48:15.366Z,9.6
2023-04-18T20:50:19.224Z,9.5
2023-04-18T20:52:26.361Z,9.4
2023-04-18T20:54:30.195Z,9.4
2023-04-18T20:56:34.067Z,9.4
2023-04-18T21:00:41.810Z,9.3
2023-04-18T21:02:45.786Z,9.3
2023-04-18T21:04:49.581Z,9.2
2023-04-18T21:09:00.487Z,9.2
2023-04-18T21:11:04.345Z,9.2
2023-04-18T21:13:08.217Z,9.1
2023-04-18T21:15:12.087Z,9.1
2023-04-18T21:19:19.795Z,9
2023-04-18T21:21:27.355Z,9
2023-04-18T21:23:31.244Z,9
2023-04-18T21:25:35.092Z,8.9
2023-04-18T21:29:42.806Z,8.8
2023-04-18T21:38:01.547Z,8.7
2023-04-18T21:40:05.366Z,8.6
2023-04-18T21:41:08.934Z,8.7
2023-04-18T21:49:27.622Z,8.6
2023-04-18T21:51:31.449Z,8.6
2023-04-18T21:53:35.332Z,8.6
2023-04-18T21:55:39.188Z,8.7
2023-04-18T21:57:43.024Z,8.6
2023-04-18T21:59:46.881Z,8.5
2023-04-18T22:01:50.711Z,8.4
2023-04-18T22:03:58.090Z,8.5
2023-04-18T22:06:01.809Z,8.5
2023-04-18T22:08:05.620Z,8.5
2023-04-18T22:10:09.456Z,8.4
2023-04-18T22:12:13.339Z,8.4
2023-04-18T22:18:28.129Z,8.4
2023-04-18T22:20:31.985Z,8.3
2023-04-18T22:22:35.829Z,8.3
2023-04-18T22:26:43.504Z,8.3
2023-04-18T22:32:58.366Z,8.1
2023-04-18T22:35:02.204Z,8
2023-04-18T22:37:06.040Z,8
2023-04-18T22:38:09.606Z,8
2023-04-18T22:42:17.315Z,8
2023-04-18T22:44:21.152Z,8
2023-04-18T22:46:28.327Z,8
2023-04-18T22:48:32.127Z,8
2023-04-18T22:50:35.987Z,8
2023-04-18T22:52:39.826Z,8.1
2023-04-18T22:54:43.782Z,8.1
2023-04-18T22:56:49.202Z,8.1
2023-04-18T22:58:52.961Z,8.1
2023-04-18T23:01:00.138Z,8.1
2023-04-18T23:03:04.211Z,8
2023-04-18T23:05:07.795Z,8
2023-04-18T23:07:11.633Z,8
2023-04-18T23:09:15.499Z,7.9
2023-04-18T23:11:19.318Z,7.9
2023-04-18T23:15:30.284Z,7.7
2023-04-18T23:17:34.193Z,7.8
2023-04-18T23:19:38.001Z,7.7
2023-04-18T23:21:41.814Z,7.6
2023-04-18T23:23:45.665Z,7.6
2023-04-18T23:25:49.505Z,7.5
2023-04-18T23:27:53.351Z,7.5
2023-04-18T23:30:00.453Z,7.5
2023-04-18T23:32:04.293Z,7.5
2023-04-18T23:34:08.155Z,7.5
2023-04-18T23:38:34.590Z,7.5
2023-04-18T23:40:38.402Z,7.5
2023-04-18T23:42:45.549Z,7.5
2023-04-18T23:46:53.264Z,7.4
2023-04-18T23:53:04.733Z,7.5
2023-04-18T23:57:15.677Z,7.5
